createdAt,value
2016-11-19T15:15:31.261Z,985.79
2016-11-19T15:16:31.208Z,985.81
2016-11-19T15:17:31.204Z,985.8
2016-11-19T15:18:31.199Z,985.83
2016-11-19T15:19:31.194Z,985.85
2016-11-19T15:20:31.191Z,985.87
2016-11-19T15:21:31.187Z,985.84
2016-11-19T15:22:31.182Z,985.94
2016-11-19T15:23:31.178Z,985.92
2016-11-19T15:24:31.174Z,985.87
2016-11-19T15:25:31.175Z,985.85
2016-11-19T15:26:31.172Z,985.9
2016-11-19T15:27:31.160Z,985.97
2016-11-19T15:28:31.156Z,985.98
2016-11-19T15:29:31.151Z,986
2016-11-19T15:30:31.200Z,986.01
2016-11-19T15:31:31.144Z,985.98
2016-11-19T15:32:31.140Z,985.96
2016-11-19T15:33:31.135Z,986.02
2016-11-19T15:34:31.131Z,986
2016-11-19T15:35:31.128Z,986.04
2016-11-19T15:36:31.122Z,986.05
2016-11-19T15:37:31.119Z,986.02
2016-11-19T15:38:31.114Z,986.08
2016-11-19T15:39:31.112Z,986.05
2016-11-19T15:40:31.105Z,986.1
2016-11-19T15:41:31.100Z,986.03
2016-11-19T15:42:31.097Z,986.03
2016-11-19T15:43:31.092Z,986.04
2016-11-19T15:44:31.087Z,986.05
2016-11-19T15:45:31.934Z,986.13
2016-11-19T15:46:31.080Z,986.15
2016-11-19T15:47:31.075Z,986.19
2016-11-19T15:48:31.070Z,986.17
2016-11-19T15:49:31.066Z,986.19
2016-11-19T15:50:31.062Z,986.2
2016-11-19T15:51:31.058Z,986.21
2016-11-19T15:52:31.053Z,986.25
2016-11-19T15:53:31.055Z,986.27
2016-11-19T15:54:31.045Z,986.25
2016-11-19T15:55:31.039Z,986.27
2016-11-19T15:56:31.037Z,986.3
2016-11-19T15:57:31.035Z,986.27
2016-11-19T15:58:31.026Z,986.24
2016-11-19T15:59:31.025Z,986.27
2016-11-19T16:00:32.069Z,986.33
2016-11-19T16:01:31.014Z,986.31
2016-11-19T16:02:31.012Z,986.37
2016-11-19T16:03:31.012Z,986.36
2016-11-19T16:04:31.012Z,986.37
2016-11-19T16:05:30.999Z,986.4
2016-11-19T16:06:30.993Z,986.38
2016-11-19T16:07:30.989Z,986.38
2016-11-19T16:08:30.983Z,986.42
2016-11-19T16:09:30.979Z,986.44
2016-11-19T16:10:30.978Z,986.49
2016-11-19T16:11:30.977Z,986.47
2016-11-19T16:12:30.978Z,986.57
2016-11-19T16:13:30.962Z,986.57
2016-11-19T16:14:30.962Z,986.59
2016-11-19T16:15:30.951Z,986.57
2016-11-19T16:16:30.947Z,986.61
2016-11-19T16:17:30.941Z,986.66
2016-11-19T16:18:30.934Z,986.63
2016-11-19T16:19:30.934Z,986.67
2016-11-19T16:20:30.928Z,986.68
2016-11-19T16:21:30.925Z,986.7
2016-11-19T16:22:30.922Z,986.73
2016-11-19T16:23:30.925Z,986.74
2016-11-19T16:24:30.930Z,986.72
2016-11-19T16:25:30.900Z,986.77
2016-11-19T16:26:30.894Z,986.77
2016-11-19T16:27:30.890Z,986.81
2016-11-19T16:28:30.884Z,986.85
2016-11-19T16:29:30.878Z,986.81
2016-11-19T16:30:30.873Z,986.82
2016-11-19T16:31:30.867Z,986.83
2016-11-19T16:32:30.863Z,986.86
2016-11-19T16:33:30.863Z,986.85
2016-11-19T16:34:30.861Z,986.87
2016-11-19T16:35:30.847Z,986.92
2016-11-19T16:36:30.841Z,986.9
2016-11-19T16:37:30.836Z,986.94
2016-11-19T16:38:30.835Z,986.98
2016-11-19T16:39:30.826Z,986.97
2016-11-19T16:40:30.820Z,987
2016-11-19T16:41:30.818Z,987.03
2016-11-19T16:42:30.811Z,986.94
2016-11-19T16:43:30.805Z,987
2016-11-19T16:44:30.799Z,986.96
2016-11-19T16:45:30.794Z,986.99
2016-11-19T16:46:30.787Z,986.95
2016-11-19T16:47:30.783Z,986.95
2016-11-19T16:48:30.777Z,986.94
2016-11-19T16:49:30.772Z,986.97
2016-11-19T16:50:30.767Z,986.96
2016-11-19T16:51:30.770Z,986.93
2016-11-19T16:52:30.756Z,986.98
2016-11-19T16:53:30.752Z,986.95
2016-11-19T16:54:30.745Z,986.98
2016-11-19T16:55:30.739Z,986.98
2016-11-19T16:56:30.735Z,987.02
2016-11-19T16:57:30.728Z,987.04
2016-11-19T16:58:30.727Z,987.03
2016-11-19T16:59:30.721Z,987.07
2016-11-19T17:00:30.710Z,987.11
2016-11-19T17:01:30.706Z,987.15
2016-11-19T17:02:30.701Z,987.13
2016-11-19T17:03:30.694Z,987.11
2016-11-19T17:04:30.688Z,987.13
2016-11-19T17:05:30.685Z,987.07
2016-11-19T17:06:30.676Z,987.06
2016-11-19T17:07:30.672Z,987.02
2016-11-19T17:08:30.665Z,987.05
2016-11-19T17:09:30.659Z,987.07
2016-11-19T17:10:30.653Z,987.03
2016-11-19T17:11:30.648Z,986.99
2016-11-19T17:12:30.646Z,987.03
2016-11-19T17:13:30.636Z,986.97
2016-11-19T17:14:30.631Z,987.02
2016-11-19T17:15:30.624Z,987.02
2016-11-19T17:16:30.620Z,987
2016-11-19T17:17:30.614Z,987
2016-11-19T17:18:30.609Z,987.02
2016-11-19T17:19:30.602Z,987
2016-11-19T17:20:30.596Z,987.02
2016-11-19T17:21:30.591Z,987.03
2016-11-19T17:22:30.583Z,987.01
2016-11-19T17:23:30.579Z,986.97
2016-11-19T17:24:30.573Z,987.01
2016-11-19T17:25:30.569Z,986.97
2016-11-19T17:26:30.560Z,986.96
2016-11-19T17:27:30.554Z,987
2016-11-19T17:28:30.549Z,986.96
2016-11-19T17:29:30.544Z,987
2016-11-19T17:30:30.540Z,987.01
2016-11-19T17:31:30.539Z,987.04
2016-11-19T17:32:30.526Z,987.06
2016-11-19T17:33:30.528Z,987.1
2016-11-19T17:35:30.509Z,987.12
2016-11-19T17:36:30.501Z,987.18
2016-11-19T17:37:30.497Z,987.17
2016-11-19T17:38:30.489Z,987.24
2016-11-19T17:39:30.483Z,987.21
2016-11-19T17:40:30.477Z,987.24
2016-11-19T17:41:30.471Z,987.16
2016-11-19T17:42:30.465Z,987.17
2016-11-19T17:43:30.462Z,987.12
2016-11-19T17:44:30.452Z,987.1
2016-11-19T17:45:30.446Z,987.11
2016-11-19T17:46:30.440Z,987.06
2016-11-19T17:47:30.435Z,987.05
2016-11-19T17:48:30.428Z,987.11
2016-11-19T17:49:30.421Z,987.13
2016-11-19T17:50:30.416Z,987.1
2016-11-19T17:51:30.409Z,987.13
2016-11-19T17:52:30.404Z,987.13
2016-11-19T17:53:30.402Z,987.09
2016-11-19T17:54:30.399Z,987.08
2016-11-19T17:55:30.395Z,987.11
2016-11-19T17:56:30.387Z,987.03
2016-11-19T17:57:30.379Z,987.06
2016-11-19T17:58:30.376Z,987.07
2016-11-19T17:59:30.358Z,987.06
2016-11-19T18:00:30.352Z,987.04
2016-11-19T18:01:30.346Z,986.99
2016-11-19T18:02:30.342Z,987.01
2016-11-19T18:03:30.341Z,987.02
2016-11-19T18:04:30.333Z,987.07
2016-11-19T18:05:30.332Z,987.05
2016-11-19T18:06:30.323Z,986.98
2016-11-19T18:07:30.308Z,987.01
2016-11-19T18:08:30.300Z,987
2016-11-19T18:09:30.293Z,987.06
2016-11-19T18:10:30.286Z,987.05
2016-11-19T18:11:30.281Z,987.05
2016-11-19T18:12:30.274Z,987.02
2016-11-19T18:13:30.275Z,987.02
2016-11-19T18:14:30.260Z,987
2016-11-19T18:15:30.254Z,987.01
2016-11-19T18:16:30.248Z,987.07
2016-11-19T18:17:30.240Z,987.06
2016-11-19T18:18:30.235Z,987.1
2016-11-19T18:19:30.227Z,987.09
2016-11-19T18:20:30.230Z,987.05
2016-11-19T18:21:30.213Z,987.07
2016-11-19T18:22:30.207Z,987.15
2016-11-19T18:23:30.202Z,987.12
2016-11-19T18:24:30.200Z,987.12
2016-11-19T18:25:30.187Z,987.13
2016-11-19T18:26:30.192Z,987.09
2016-11-19T18:27:30.181Z,987.09
2016-11-19T18:28:30.167Z,987.07
2016-11-19T18:29:30.161Z,987.08
2016-11-19T18:30:30.165Z,987.03
2016-11-19T18:31:30.149Z,987.1
2016-11-19T18:32:30.140Z,987.09
2016-11-19T18:33:30.151Z,987.07
2016-11-19T18:34:30.142Z,987.09
2016-11-19T18:35:30.120Z,987.05
2016-11-19T18:36:30.113Z,986.98
2016-11-19T18:37:30.107Z,986.98
2016-11-19T18:38:30.101Z,986.98
2016-11-19T18:39:30.092Z,986.97
2016-11-19T18:40:30.201Z,986.95
2016-11-19T18:41:30.080Z,986.94
2016-11-19T18:42:30.072Z,986.96
2016-11-19T18:43:30.065Z,986.96
2016-11-19T18:44:30.058Z,986.97
2016-11-19T18:45:30.051Z,986.96
2016-11-19T18:46:30.047Z,986.95
2016-11-19T18:47:30.038Z,986.97
2016-11-19T18:48:30.033Z,986.95
2016-11-19T18:49:30.026Z,986.89
2016-11-19T18:50:30.019Z,986.94
2016-11-19T18:51:30.010Z,986.94
2016-11-19T18:52:30.002Z,986.88
2016-11-19T18:53:29.996Z,986.87
2016-11-19T18:54:29.991Z,986.86
2016-11-19T18:55:29.982Z,986.86
2016-11-19T18:56:29.976Z,986.84
2016-11-19T18:57:29.968Z,986.86
2016-11-19T18:58:29.961Z,986.87
2016-11-19T18:59:29.956Z,986.88
2016-11-19T19:00:29.948Z,986.89
2016-11-19T19:01:29.940Z,986.88
2016-11-19T19:02:29.933Z,986.86
2016-11-19T19:03:29.927Z,986.83
2016-11-19T19:04:29.920Z,986.84
2016-11-19T19:05:29.913Z,986.84
2016-11-19T19:06:29.906Z,986.84
2016-11-19T19:07:29.899Z,986.84
2016-11-19T19:08:29.899Z,986.87
2016-11-19T19:09:29.884Z,986.89
2016-11-19T19:10:29.879Z,986.83
2016-11-19T19:11:29.872Z,986.79
2016-11-19T19:12:29.863Z,986.79
2016-11-19T19:13:29.857Z,986.79
2016-11-19T19:14:29.852Z,986.79
2016-11-19T19:15:29.843Z,986.72
2016-11-19T19:16:29.843Z,986.72
2016-11-19T19:17:29.830Z,986.73
2016-11-19T19:18:29.822Z,986.75
2016-11-19T19:19:29.815Z,986.74
2016-11-19T19:20:29.809Z,986.77
2016-11-19T19:21:29.809Z,986.74
2016-11-19T19:22:29.804Z,986.72
2016-11-19T19:23:29.793Z,986.64
2016-11-19T19:24:29.780Z,986.58
2016-11-19T19:25:29.776Z,986.66
2016-11-19T19:26:29.767Z,986.63
2016-11-19T19:27:29.760Z,986.58
2016-11-19T19:28:29.753Z,986.6
2016-11-19T19:29:29.751Z,986.6
2016-11-19T19:30:29.744Z,986.61
2016-11-19T19:31:29.737Z,986.6
2016-11-19T19:32:29.732Z,986.58
2016-11-19T19:33:29.720Z,986.55
2016-11-19T19:34:29.712Z,986.52
2016-11-19T19:35:29.706Z,986.47
2016-11-19T19:36:29.699Z,986.49
2016-11-19T19:37:29.694Z,986.46
2016-11-19T19:38:29.685Z,986.45
2016-11-19T19:39:29.679Z,986.41
2016-11-19T19:40:29.673Z,986.42
2016-11-19T19:41:29.666Z,986.35
2016-11-19T19:42:29.659Z,986.33
2016-11-19T19:43:29.652Z,986.31
2016-11-19T19:44:29.645Z,986.27
2016-11-19T19:45:29.639Z,986.25
2016-11-19T19:46:29.634Z,986.21
2016-11-19T19:47:29.625Z,986.17
2016-11-19T19:48:29.618Z,986.2
2016-11-19T19:49:29.616Z,986.17
2016-11-19T19:50:29.604Z,986.17
2016-11-19T19:51:29.600Z,986.17
2016-11-19T19:52:29.590Z,986.17
2016-11-19T19:53:29.592Z,986.12
2016-11-19T19:54:29.578Z,986.12
2016-11-19T19:55:29.571Z,986.17
2016-11-19T19:56:29.563Z,986.19
2016-11-19T19:57:29.557Z,986.2
2016-11-19T19:58:29.550Z,986.23
2016-11-19T19:59:29.548Z,986.24
2016-11-19T20:00:29.537Z,986.26
2016-11-19T20:01:29.534Z,986.24
2016-11-19T20:02:29.524Z,986.22
2016-11-19T20:03:29.520Z,986.22
2016-11-19T20:04:29.511Z,986.21
2016-11-19T20:05:29.506Z,986.18
2016-11-19T20:06:29.496Z,986.17
2016-11-19T20:07:29.540Z,986.2
2016-11-19T20:08:29.483Z,986.19
2016-11-19T20:09:29.478Z,986.23
2016-11-19T20:10:29.470Z,986.2
2016-11-19T20:11:29.464Z,986.22
2016-11-19T20:12:29.459Z,986.22
2016-11-19T20:13:29.450Z,986.22
2016-11-19T20:14:29.445Z,986.26
2016-11-19T20:15:29.440Z,986.26
2016-11-19T20:16:29.431Z,986.22
2016-11-19T20:17:29.424Z,986.24
2016-11-19T20:18:29.415Z,986.21
2016-11-19T20:19:29.411Z,986.25
2016-11-19T20:20:29.403Z,986.25
2016-11-19T20:21:29.396Z,986.25
2016-11-19T20:22:29.388Z,986.22
2016-11-19T20:23:29.383Z,986.22
2016-11-19T20:24:29.377Z,986.2
2016-11-19T20:25:29.367Z,986.26
2016-11-19T20:26:29.361Z,986.23
2016-11-19T20:27:29.359Z,986.25
2016-11-19T20:28:29.348Z,986.21
2016-11-19T20:29:29.341Z,986.16
2016-11-19T20:30:29.334Z,986.11
2016-11-19T20:31:29.328Z,986.07
2016-11-19T20:32:29.472Z,986.04
2016-11-19T20:33:29.319Z,986
2016-11-19T20:34:29.307Z,985.97
2016-11-19T20:35:29.306Z,986.01
2016-11-19T20:36:29.294Z,985.98
2016-11-19T20:37:29.287Z,986
2016-11-19T20:38:29.281Z,986.05
2016-11-19T20:39:29.276Z,986.09
2016-11-19T20:40:29.272Z,986.06
2016-11-19T20:41:29.263Z,986.05
2016-11-19T20:42:29.254Z,986.02
2016-11-19T20:43:29.260Z,985.96
2016-11-19T20:44:29.252Z,985.94
2016-11-19T20:45:29.236Z,985.91
2016-11-19T20:46:29.229Z,985.95
2016-11-19T20:47:29.721Z,985.94
2016-11-19T20:48:29.215Z,985.95
2016-11-19T20:49:29.211Z,985.94
2016-11-19T20:50:29.202Z,985.92
2016-11-19T20:51:29.195Z,985.95
2016-11-19T20:52:29.192Z,985.94
2016-11-19T20:57:15.525Z,986.07
2016-11-19T20:58:15.524Z,986.07
2016-11-19T20:59:15.521Z,986.05
2016-11-19T21:00:15.504Z,986.07
2016-11-19T21:01:15.499Z,986.14
2016-11-19T21:02:15.490Z,986.18
2016-11-19T21:03:15.532Z,986.23
2016-11-19T21:04:15.487Z,986.15
2016-11-19T21:10:24.990Z,986.08
2016-11-19T21:11:24.975Z,986.06
2016-11-19T21:12:24.964Z,986.08
2016-11-19T21:13:24.953Z,986.05
2016-11-19T21:14:24.948Z,985.98
2016-11-19T21:15:24.943Z,985.95
2016-11-19T21:16:24.934Z,985.94
2016-11-19T21:17:24.924Z,985.91
2016-11-19T21:18:24.920Z,985.84
2016-11-19T21:19:24.912Z,985.88
2016-11-19T21:20:24.906Z,985.92
2016-11-19T21:21:24.898Z,985.9
2016-11-19T21:22:24.898Z,985.9
2016-11-19T21:23:24.897Z,985.94
2016-11-19T21:24:24.878Z,985.93
2016-11-19T21:40:36.241Z,985.93
2016-11-19T21:41:36.234Z,985.97
2016-11-19T21:43:36.219Z,985.96
2016-11-19T21:44:36.213Z,985.98
2016-11-19T21:52:17.141Z,985.89
2016-11-19T21:53:17.135Z,985.91
2016-11-19T21:54:17.127Z,985.89
2016-11-19T21:55:17.120Z,985.86
2016-11-19T21:56:17.113Z,985.89
2016-11-19T21:57:17.105Z,985.85
2016-11-19T21:58:17.098Z,985.85
2016-11-19T21:59:17.090Z,985.78
2016-11-19T22:00:17.095Z,985.73
2016-11-19T22:01:17.076Z,985.73
2016-11-19T22:02:17.069Z,985.74
2016-11-19T22:03:17.061Z,985.71
2016-11-19T22:04:17.054Z,985.73
2016-11-19T22:05:17.048Z,985.7
2016-11-19T22:06:17.039Z,985.71
2016-11-19T22:07:17.033Z,985.7
2016-11-19T22:08:17.025Z,985.66
2016-11-19T22:09:17.020Z,985.66
2016-11-19T22:10:17.077Z,985.62
2016-11-19T22:11:17.005Z,985.66
2016-11-19T22:12:16.999Z,985.62
2016-11-19T22:13:16.989Z,985.6
2016-11-19T22:14:16.988Z,985.51
2016-11-19T22:15:17.248Z,985.45
2016-11-19T22:16:16.975Z,985.49
2016-11-19T22:22:58.184Z,985.25
2016-11-19T22:28:59.156Z,985.3
2016-11-19T22:29:59.149Z,985.24
2016-11-19T22:30:59.142Z,985.21
2016-11-19T22:31:59.136Z,985.16
2016-11-19T22:32:59.127Z,985.12
2016-11-19T22:33:59.121Z,985.03
2016-11-19T22:34:59.114Z,985.05
2016-11-19T22:35:59.108Z,984.96
2016-11-19T22:36:59.100Z,984.98
2016-11-19T22:37:59.093Z,984.92
2016-11-19T22:38:59.088Z,984.92
2016-11-19T22:39:59.080Z,984.9
2016-11-19T22:40:59.072Z,984.9
2016-11-19T22:41:59.066Z,984.88
2016-11-19T22:42:59.059Z,984.83
2016-11-19T22:43:59.052Z,984.76
2016-11-19T22:44:59.047Z,984.69
2016-11-19T22:45:59.038Z,984.71
2016-11-19T22:46:59.032Z,984.69
2016-11-19T22:47:59.029Z,984.71
2016-11-19T22:48:59.017Z,984.73
2016-11-19T22:49:59.011Z,984.67
2016-11-19T22:50:59.004Z,984.68
2016-11-19T22:51:58.997Z,984.68
2016-11-19T22:52:58.990Z,984.62
2016-11-19T22:53:58.983Z,984.65
2016-11-19T22:54:58.977Z,984.65
2016-11-19T22:55:58.969Z,984.64
2016-11-19T22:56:58.963Z,984.66
2016-11-19T22:57:58.956Z,984.68
2016-11-19T22:58:58.948Z,984.73
2016-11-19T22:59:58.942Z,984.66
2016-11-19T23:00:58.936Z,984.7
2016-11-19T23:01:58.929Z,984.67
2016-11-19T23:02:58.923Z,984.7
2016-11-19T23:03:58.924Z,984.67
2016-11-19T23:04:58.908Z,984.76
2016-11-19T23:05:58.900Z,984.69
2016-11-19T23:06:58.893Z,984.68
2016-11-19T23:07:58.887Z,984.71
2016-11-19T23:08:58.879Z,984.7
2016-11-19T23:09:58.876Z,984.67
2016-11-19T23:10:58.866Z,984.68
2016-11-19T23:11:58.867Z,984.71
2016-11-19T23:12:58.852Z,984.66
2016-11-19T23:13:58.844Z,984.66
2016-11-19T23:14:58.839Z,984.66
2016-11-19T23:15:58.832Z,984.65
2016-11-19T23:16:58.823Z,984.67
2016-11-19T23:17:58.816Z,984.63
2016-11-19T23:18:58.810Z,984.54
2016-11-19T23:19:58.803Z,984.61
2016-11-19T23:20:58.795Z,984.59
2016-11-19T23:21:58.789Z,984.53
2016-11-19T23:22:58.782Z,984.47
2016-11-19T23:23:58.776Z,984.5
2016-11-19T23:24:58.770Z,984.47
2016-11-19T23:25:58.763Z,984.45
2016-11-19T23:26:58.755Z,984.45
2016-11-19T23:27:58.748Z,984.43
2016-11-19T23:28:58.743Z,984.45
2016-11-19T23:29:58.735Z,984.47
2016-11-19T23:30:58.730Z,984.45
2016-11-19T23:31:58.720Z,984.41
2016-11-19T23:32:58.716Z,984.45
2016-11-19T23:33:59.054Z,984.44
2016-11-19T23:34:58.701Z,984.46
2016-11-19T23:35:58.694Z,984.44
2016-11-19T23:36:58.687Z,984.39
2016-11-19T23:37:58.681Z,984.36
2016-11-19T23:38:58.674Z,984.31
2016-11-19T23:39:58.668Z,984.36
2016-11-19T23:40:58.665Z,984.31
2016-11-19T23:41:58.661Z,984.32
2016-11-19T23:42:58.646Z,984.32
2016-11-19T23:43:58.640Z,984.36
2016-11-19T23:44:58.633Z,984.38
2016-11-19T23:45:58.626Z,984.38
2016-11-19T23:46:58.620Z,984.39
2016-11-19T23:47:58.612Z,984.34
2016-11-19T23:48:58.607Z,984.31
2016-11-19T23:49:58.606Z,984.28
2016-11-19T23:50:58.593Z,984.28
2016-11-19T23:51:58.592Z,984.26
2016-11-19T23:52:58.582Z,984.22
2016-11-19T23:53:58.571Z,984.19
2016-11-19T23:54:58.565Z,984.17
2016-11-19T23:55:58.559Z,984.14
2016-11-19T23:56:58.552Z,984.12
2016-11-19T23:57:58.546Z,984.13
2016-11-19T23:58:58.539Z,984.12
2016-11-19T23:59:58.633Z,984.07
